KDED/DED METAR and TAF weather

Enter ICAO airport designator
Station Type Date Time Source
KDED METAR 2022/01/26 07:50 UTC NOAA

KDED 260750Z AUTO 01003KT 10SM OVC003 10/09 A3004 RMK AO2 T00980093


Station Type Date Time Source
KDED Decoded METAR 2022/01/26 07:50 UTC NOAA

Station name not available
Jan 26, 2022 - 02:50 AM EST / 2022.01.26 0750 UTC
Wind: from the N (010 degrees) at 3 MPH (3 KT):0
Visibility: 10 mile(s):0
Sky conditions: overcast
Temperature: 49.6 F (9.8 C)
Dew Point: 48.7 F (9.3 C)
Relative Humidity: 96%
Pressure (altimeter): 30.04 in. Hg (1017 hPa)
ob: KDED 260750Z AUTO 01003KT 10SM OVC003 10/09 A3004 RMK AO2 T00980093
cycle: 8

Station Type Date Time Source
KDED TAF UTC NOAA

Error!

Example: see airport list